sensor_id;sensor_type;location;lat;lon;timestamp;temperature;humidity
20432;DHT22;10375;49.136;10.366;2022-12-07T00:01:20;2.30;99.90
20432;DHT22;10375;49.136;10.366;2022-12-07T00:03:49;2.30;99.90
20432;DHT22;10375;49.136;10.366;2022-12-07T00:06:18;2.30;99.90
20432;DHT22;10375;49.136;10.366;2022-12-07T00:08:45;2.30;99.90
20432;DHT22;10375;49.136;10.366;2022-12-07T00:11:18;2.30;99.90
20432;DHT22;10375;49.136;10.366;2022-12-07T00:13:47;2.30;99.90
20432;DHT22;10375;49.136;10.366;2022-12-07T00:16:16;2.30;99.90
20432;DHT22;10375;49.136;10.366;2022-12-07T00:18:44;2.30;99.90
20432;DHT22;10375;49.136;10.366;2022-12-07T00:21:14;2.30;99.90
20432;DHT22;10375;49.136;10.366;2022-12-07T00:23:43;2.30;99.90
20432;DHT22;10375;49.136;10.366;2022-12-07T00:26:16;2.30;99.90
20432;DHT22;10375;49.136;10.366;2022-12-07T00:28:51;2.30;99.90
20432;DHT22;10375;49.136;10.366;2022-12-07T00:31:21;2.30;99.90
20432;DHT22;10375;49.136;10.366;2022-12-07T00:33:49;2.30;99.90
20432;DHT22;10375;49.136;10.366;2022-12-07T00:36:22;2.30;99.90
20432;DHT22;10375;49.136;10.366;2022-12-07T00:38:54;2.30;99.90
20432;DHT22;10375;49.136;10.366;2022-12-07T00:41:23;2.40;99.90
20432;DHT22;10375;49.136;10.366;2022-12-07T00:43:50;2.30;99.90
20432;DHT22;10375;49.136;10.366;2022-12-07T00:46:19;2.30;99.90
20432;DHT22;10375;49.136;10.366;2022-12-07T00:48:47;2.30;99.90
20432;DHT22;10375;49.136;10.366;2022-12-07T00:51:17;2.30;99.90
20432;DHT22;10375;49.136;10.366;2022-12-07T00:53:44;2.30;99.90
20432;DHT22;10375;49.136;10.366;2022-12-07T00:56:13;2.30;99.90
20432;DHT22;10375;49.136;10.366;2022-12-07T00:58:40;2.30;99.90
20432;DHT22;10375;49.136;10.366;2022-12-07T01:01:08;2.30;99.90
20432;DHT22;10375;49.136;10.366;2022-12-07T01:03:36;2.20;99.90
20432;DHT22;10375;49.136;10.366;2022-12-07T01:06:04;2.20;99.90
20432;DHT22;10375;49.136;10.366;2022-12-07T01:08:32;2.20;99.90
20432;DHT22;10375;49.136;10.366;2022-12-07T01:11:03;2.20;99.90
20432;DHT22;10375;49.136;10.366;2022-12-07T01:13:31;2.20;99.90
20432;DHT22;10375;49.136;10.366;2022-12-07T01:15:59;2.20;99.90
20432;DHT22;10375;49.136;10.366;2022-12-07T01:18:28;2.20;99.90
20432;DHT22;10375;49.136;10.366;2022-12-07T01:21:01;2.30;99.90
20432;DHT22;10375;49.136;10.366;2022-12-07T01:23:29;2.30;99.90
20432;DHT22;10375;49.136;10.366;2022-12-07T01:25:57;2.20;99.90
20432;DHT22;10375;49.136;10.366;2022-12-07T01:28:25;2.20;99.90
20432;DHT22;10375;49.136;10.366;2022-12-07T01:31:06;2.20;99.90
20432;DHT22;10375;49.136;10.366;2022-12-07T01:33:36;2.20;99.90
20432;DHT22;10375;49.136;10.366;2022-12-07T01:36:08;2.20;99.90
20432;DHT22;10375;49.136;10.366;2022-12-07T01:38:39;2.20;99.90
20432;DHT22;10375;49.136;10.366;2022-12-07T01:41:07;2.20;99.90
20432;DHT22;10375;49.136;10.366;2022-12-07T01:43:35;2.20;99.90
20432;DHT22;10375;49.136;10.366;2022-12-07T01:46:03;2.10;99.90
20432;DHT22;10375;49.136;10.366;2022-12-07T01:48:34;2.10;99.90
20432;DHT22;10375;49.136;10.366;2022-12-07T01:51:10;2.10;99.90
20432;DHT22;10375;49.136;10.366;2022-12-07T01:53:43;2.10;99.90
20432;DHT22;10375;49.136;10.366;2022-12-07T01:56:13;2.10;99.90
20432;DHT22;10375;49.136;10.366;2022-12-07T01:58:43;2.10;99.90
20432;DHT22;10375;49.136;10.366;2022-12-07T02:01:11;2.00;99.90
20432;DHT22;10375;49.136;10.366;2022-12-07T02:03:41;2.00;99.90
20432;DHT22;10375;49.136;10.366;2022-12-07T02:06:11;2.00;99.90
20432;DHT22;10375;49.136;10.366;2022-12-07T02:08:39;2.00;99.90
20432;DHT22;10375;49.136;10.366;2022-12-07T02:11:07;2.00;99.90
20432;DHT22;10375;49.136;10.366;2022-12-07T02:13:36;2.00;99.90
20432;DHT22;10375;49.136;10.366;2022-12-07T02:16:38;2.00;99.90
20432;DHT22;10375;49.136;10.366;2022-12-07T02:30:21;1.80;99.90
20432;DHT22;10375;49.136;10.366;2022-12-07T02:33:07;1.90;99.90
20432;DHT22;10375;49.136;10.366;2022-12-07T02:35:51;1.90;99.90
20432;DHT22;10375;49.136;10.366;2022-12-07T02:41:48;1.80;99.90
20432;DHT22;10375;49.136;10.366;2022-12-07T02:44:20;1.70;99.90
20432;DHT22;10375;49.136;10.366;2022-12-07T02:46:55;1.70;99.90
20432;DHT22;10375;49.136;10.366;2022-12-07T02:49:24;1.60;99.90
20432;DHT22;10375;49.136;10.366;2022-12-07T02:51:53;1.50;99.90
20432;DHT22;10375;49.136;10.366;2022-12-07T02:54:21;1.50;99.90
20432;DHT22;10375;49.136;10.366;2022-12-07T02:56:52;1.40;99.90
20432;DHT22;10375;49.136;10.366;2022-12-07T03:13:21;1.00;99.90
20432;DHT22;10375;49.136;10.366;2022-12-07T03:16:20;0.90;99.90
20432;DHT22;10375;49.136;10.366;2022-12-07T03:19:08;0.80;99.90
20432;DHT22;10375;49.136;10.366;2022-12-07T03:22:05;0.70;99.90
20432;DHT22;10375;49.136;10.366;2022-12-07T03:24:39;0.70;99.90
20432;DHT22;10375;49.136;10.366;2022-12-07T03:29:58;0.60;99.90
20432;DHT22;10375;49.136;10.366;2022-12-07T03:32:39;0.60;99.90
20432;DHT22;10375;49.136;10.366;2022-12-07T03:38:00;0.60;99.90
20432;DHT22;10375;49.136;10.366;2022-12-07T03:43:19;0.70;99.90
20432;DHT22;10375;49.136;10.366;2022-12-07T03:46:15;0.70;99.90
20432;DHT22;10375;49.136;10.366;2022-12-07T03:53:08;0.80;99.90
20432;DHT22;10375;49.136;10.366;2022-12-07T03:55:47;0.90;99.90
20432;DHT22;10375;49.136;10.366;2022-12-07T03:58:22;0.90;99.90
20432;DHT22;10375;49.136;10.366;2022-12-07T04:00:56;0.90;99.90
20432;DHT22;10375;49.136;10.366;2022-12-07T04:03:30;0.90;99.90
20432;DHT22;10375;49.136;10.366;2022-12-07T04:06:01;0.90;99.90
20432;DHT22;10375;49.136;10.366;2022-12-07T04:08:33;0.90;99.90
20432;DHT22;10375;49.136;10.366;2022-12-07T04:11:07;0.90;99.90
20432;DHT22;10375;49.136;10.366;2022-12-07T04:13:45;0.90;99.90
20432;DHT22;10375;49.136;10.366;2022-12-07T04:16:33;1.00;99.90
20432;DHT22;10375;49.136;10.366;2022-12-07T04:19:10;1.00;99.90
20432;DHT22;10375;49.136;10.366;2022-12-07T04:21:52;1.00;99.90
20432;DHT22;10375;49.136;10.366;2022-12-07T04:24:24;1.00;99.90
20432;DHT22;10375;49.136;10.366;2022-12-07T04:26:52;1.10;99.90
20432;DHT22;10375;49.136;10.366;2022-12-07T04:29:31;1.10;99.90
20432;DHT22;10375;49.136;10.366;2022-12-07T04:31:58;1.10;99.90
20432;DHT22;10375;49.136;10.366;2022-12-07T04:34:26;1.10;99.90
20432;DHT22;10375;49.136;10.366;2022-12-07T04:36:54;1.10;99.90
20432;DHT22;10375;49.136;10.366;2022-12-07T04:39:33;1.10;99.90
20432;DHT22;10375;49.136;10.366;2022-12-07T04:42:04;1.10;99.90
20432;DHT22;10375;49.136;10.366;2022-12-07T04:44:32;1.10;99.90
20432;DHT22;10375;49.136;10.366;2022-12-07T04:47:00;1.00;99.90
20432;DHT22;10375;49.136;10.366;2022-12-07T04:49:28;1.00;99.90
20432;DHT22;10375;49.136;10.366;2022-12-07T04:51:59;1.00;99.90
20432;DHT22;10375;49.136;10.366;2022-12-07T04:54:26;1.00;99.90
20432;DHT22;10375;49.136;10.366;2022-12-07T04:56:58;1.00;99.90
20432;DHT22;10375;49.136;10.366;2022-12-07T04:59:29;1.10;99.90
20432;DHT22;10375;49.136;10.366;2022-12-07T05:01:57;1.10;99.90
20432;DHT22;10375;49.136;10.366;2022-12-07T05:04:31;1.10;99.90
20432;DHT22;10375;49.136;10.366;2022-12-07T05:07:06;1.10;99.90
20432;DHT22;10375;49.136;10.366;2022-12-07T05:09:34;1.20;99.90
20432;DHT22;10375;49.136;10.366;2022-12-07T05:12:09;1.20;99.90
20432;DHT22;10375;49.136;10.366;2022-12-07T05:14:52;1.20;99.90
20432;DHT22;10375;49.136;10.366;2022-12-07T05:17:20;1.20;99.90
20432;DHT22;10375;49.136;10.366;2022-12-07T05:19:49;1.30;99.90
20432;DHT22;10375;49.136;10.366;2022-12-07T05:22:17;1.30;99.90
20432;DHT22;10375;49.136;10.366;2022-12-07T05:24:45;1.30;99.90
20432;DHT22;10375;49.136;10.366;2022-12-07T05:27:18;1.40;99.90
20432;DHT22;10375;49.136;10.366;2022-12-07T05:30:47;1.40;99.90
20432;DHT22;10375;49.136;10.366;2022-12-07T05:34:24;1.40;99.90
20432;DHT22;10375;49.136;10.366;2022-12-07T05:37:59;1.40;99.90
20432;DHT22;10375;49.136;10.366;2022-12-07T05:41:24;1.40;99.90
20432;DHT22;10375;49.136;10.366;2022-12-07T05:44:28;1.50;99.90
20432;DHT22;10375;49.136;10.366;2022-12-07T05:46:55;1.50;99.90
20432;DHT22;10375;49.136;10.366;2022-12-07T05:49:29;1.50;99.90
20432;DHT22;10375;49.136;10.366;2022-12-07T05:52:02;1.50;99.90
20432;DHT22;10375;49.136;10.366;2022-12-07T05:54:33;1.50;99.90
20432;DHT22;10375;49.136;10.366;2022-12-07T05:57:02;1.50;99.90
20432;DHT22;10375;49.136;10.366;2022-12-07T05:59:30;1.50;99.90
20432;DHT22;10375;49.136;10.366;2022-12-07T06:02:02;1.50;99.90
20432;DHT22;10375;49.136;10.366;2022-12-07T06:04:33;1.40;99.90
20432;DHT22;10375;49.136;10.366;2022-12-07T06:07:05;1.40;99.90
20432;DHT22;10375;49.136;10.366;2022-12-07T06:09:35;1.50;99.90
20432;DHT22;10375;49.136;10.366;2022-12-07T06:12:08;1.50;99.90
20432;DHT22;10375;49.136;10.366;2022-12-07T06:14:55;1.50;99.90
20432;DHT22;10375;49.136;10.366;2022-12-07T06:17:23;1.50;99.90
20432;DHT22;10375;49.136;10.366;2022-12-07T06:19:51;1.50;99.90
20432;DHT22;10375;49.136;10.366;2022-12-07T06:22:18;1.50;99.90
20432;DHT22;10375;49.136;10.366;2022-12-07T06:25:24;1.50;99.90
20432;DHT22;10375;49.136;10.366;2022-12-07T06:27:53;1.50;99.90
20432;DHT22;10375;49.136;10.366;2022-12-07T06:30:27;1.60;99.90
20432;DHT22;10375;49.136;10.366;2022-12-07T06:33:06;1.60;99.90
20432;DHT22;10375;49.136;10.366;2022-12-07T06:35:37;1.60;99.90
20432;DHT22;10375;49.136;10.366;2022-12-07T06:38:06;1.70;99.90
20432;DHT22;10375;49.136;10.366;2022-12-07T06:40:36;1.70;99.90
20432;DHT22;10375;49.136;10.366;2022-12-07T07:02:03;1.70;99.90
20432;DHT22;10375;49.136;10.366;2022-12-07T07:04:34;1.70;99.90
20432;DHT22;10375;49.136;10.366;2022-12-07T07:07:37;1.80;99.90
20432;DHT22;10375;49.136;10.366;2022-12-07T07:10:22;1.80;99.90
20432;DHT22;10375;49.136;10.366;2022-12-07T07:13:30;1.80;99.90
20432;DHT22;10375;49.136;10.366;2022-12-07T07:16:00;1.80;99.90
20432;DHT22;10375;49.136;10.366;2022-12-07T07:18:28;1.80;99.90
20432;DHT22;10375;49.136;10.366;2022-12-07T07:20:58;1.80;99.90
20432;DHT22;10375;49.136;10.366;2022-12-07T07:23:26;1.80;99.90
20432;DHT22;10375;49.136;10.366;2022-12-07T07:25:59;1.80;99.90
20432;DHT22;10375;49.136;10.366;2022-12-07T07:28:28;1.90;99.90
20432;DHT22;10375;49.136;10.366;2022-12-07T07:31:05;1.90;99.90
20432;DHT22;10375;49.136;10.366;2022-12-07T07:33:40;1.90;99.90
20432;DHT22;10375;49.136;10.366;2022-12-07T07:36:11;1.90;99.90
20432;DHT22;10375;49.136;10.366;2022-12-07T07:39:10;1.90;99.90
20432;DHT22;10375;49.136;10.366;2022-12-07T07:41:54;1.90;99.90
20432;DHT22;10375;49.136;10.366;2022-12-07T07:44:21;2.00;99.90
20432;DHT22;10375;49.136;10.366;2022-12-07T07:46:48;2.00;99.90
20432;DHT22;10375;49.136;10.366;2022-12-07T07:49:16;2.00;99.90
20432;DHT22;10375;49.136;10.366;2022-12-07T07:51:43;2.00;99.90
20432;DHT22;10375;49.136;10.366;2022-12-07T07:54:19;2.00;99.90
20432;DHT22;10375;49.136;10.366;2022-12-07T07:56:47;2.10;99.90
20432;DHT22;10375;49.136;10.366;2022-12-07T07:59:15;2.10;99.90
20432;DHT22;10375;49.136;10.366;2022-12-07T08:01:43;2.10;99.90
20432;DHT22;10375;49.136;10.366;2022-12-07T08:04:10;2.20;99.90
20432;DHT22;10375;49.136;10.366;2022-12-07T08:06:37;2.20;99.90
20432;DHT22;10375;49.136;10.366;2022-12-07T08:09:04;2.20;99.90
20432;DHT22;10375;49.136;10.366;2022-12-07T08:11:38;2.20;99.90
20432;DHT22;10375;49.136;10.366;2022-12-07T08:14:10;2.30;99.90
20432;DHT22;10375;49.136;10.366;2022-12-07T08:16:38;2.30;99.90
20432;DHT22;10375;49.136;10.366;2022-12-07T08:19:07;2.30;99.90
20432;DHT22;10375;49.136;10.366;2022-12-07T08:21:36;2.30;99.90
20432;DHT22;10375;49.136;10.366;2022-12-07T08:24:06;2.40;99.90
20432;DHT22;10375;49.136;10.366;2022-12-07T08:26:34;2.40;99.90
20432;DHT22;10375;49.136;10.366;2022-12-07T08:29:02;2.40;99.90
20432;DHT22;10375;49.136;10.366;2022-12-07T08:31:30;2.40;99.90
20432;DHT22;10375;49.136;10.366;2022-12-07T08:33:58;2.40;99.90
20432;DHT22;10375;49.136;10.366;2022-12-07T08:36:25;2.40;99.90
20432;DHT22;10375;49.136;10.366;2022-12-07T08:38:53;2.40;99.90
20432;DHT22;10375;49.136;10.366;2022-12-07T08:41:44;2.50;99.90
20432;DHT22;10375;49.136;10.366;2022-12-07T08:44:19;2.50;99.90
20432;DHT22;10375;49.136;10.366;2022-12-07T08:46:59;2.50;99.90
20432;DHT22;10375;49.136;10.366;2022-12-07T08:49:39;2.60;99.90
20432;DHT22;10375;49.136;10.366;2022-12-07T08:52:21;2.60;99.90
20432;DHT22;10375;49.136;10.366;2022-12-07T08:54:51;2.60;99.90
20432;DHT22;10375;49.136;10.366;2022-12-07T08:57:26;2.60;99.90
20432;DHT22;10375;49.136;10.366;2022-12-07T09:00:05;2.60;99.90
20432;DHT22;10375;49.136;10.366;2022-12-07T09:02:43;2.70;99.90
20432;DHT22;10375;49.136;10.366;2022-12-07T09:05:13;2.70;99.90
20432;DHT22;10375;49.136;10.366;2022-12-07T09:07:47;2.80;99.90
20432;DHT22;10375;49.136;10.366;2022-12-07T09:10:15;2.80;99.90
20432;DHT22;10375;49.136;10.366;2022-12-07T09:12:42;2.90;99.90
20432;DHT22;10375;49.136;10.366;2022-12-07T09:15:09;3.00;99.90
20432;DHT22;10375;49.136;10.366;2022-12-07T09:17:37;3.10;99.90
20432;DHT22;10375;49.136;10.366;2022-12-07T09:20:14;3.20;99.90
20432;DHT22;10375;49.136;10.366;2022-12-07T09:22:42;3.20;99.90
20432;DHT22;10375;49.136;10.366;2022-12-07T09:25:41;3.30;99.90
20432;DHT22;10375;49.136;10.366;2022-12-07T09:28:09;3.40;99.90
20432;DHT22;10375;49.136;10.366;2022-12-07T09:30:37;3.50;99.90
20432;DHT22;10375;49.136;10.366;2022-12-07T09:33:28;3.50;99.90
20432;DHT22;10375;49.136;10.366;2022-12-07T09:35:58;3.50;99.90
20432;DHT22;10375;49.136;10.366;2022-12-07T09:38:26;3.60;99.90
20432;DHT22;10375;49.136;10.366;2022-12-07T09:40:55;3.70;99.90
20432;DHT22;10375;49.136;10.366;2022-12-07T09:43:24;3.70;99.90
20432;DHT22;10375;49.136;10.366;2022-12-07T09:45:59;3.70;99.90
20432;DHT22;10375;49.136;10.366;2022-12-07T09:48:34;3.90;99.90
20432;DHT22;10375;49.136;10.366;2022-12-07T09:51:24;4.00;99.90
20432;DHT22;10375;49.136;10.366;2022-12-07T09:53:53;4.40;99.90
20432;DHT22;10375;49.136;10.366;2022-12-07T09:56:23;4.60;99.90
20432;DHT22;10375;49.136;10.366;2022-12-07T09:59:01;4.70;99.90
20432;DHT22;10375;49.136;10.366;2022-12-07T10:01:34;4.60;99.90
20432;DHT22;10375;49.136;10.366;2022-12-07T10:04:24;4.70;99.90
20432;DHT22;10375;49.136;10.366;2022-12-07T10:06:53;4.80;99.90
20432;DHT22;10375;49.136;10.366;2022-12-07T10:09:21;4.80;99.90
20432;DHT22;10375;49.136;10.366;2022-12-07T10:12:04;4.90;99.90
20432;DHT22;10375;49.136;10.366;2022-12-07T10:14:35;4.80;99.90
20432;DHT22;10375;49.136;10.366;2022-12-07T10:17:35;4.80;99.90
20432;DHT22;10375;49.136;10.366;2022-12-07T10:22:41;4.60;99.90
20432;DHT22;10375;49.136;10.366;2022-12-07T10:25:22;4.50;99.90
20432;DHT22;10375;49.136;10.366;2022-12-07T10:30:53;4.20;99.90
20432;DHT22;10375;49.136;10.366;2022-12-07T10:33:36;4.20;99.90
20432;DHT22;10375;49.136;10.366;2022-12-07T10:36:22;4.20;99.90
20432;DHT22;10375;49.136;10.366;2022-12-07T10:39:11;4.20;99.90
20432;DHT22;10375;49.136;10.366;2022-12-07T10:42:00;4.20;99.90
20432;DHT22;10375;49.136;10.366;2022-12-07T10:44:30;4.10;99.90
20432;DHT22;10375;49.136;10.366;2022-12-07T10:59:41;4.10;99.90
20432;DHT22;10375;49.136;10.366;2022-12-07T11:05:19;4.00;99.90
20432;DHT22;10375;49.136;10.366;2022-12-07T11:07:59;3.80;99.90
20432;DHT22;10375;49.136;10.366;2022-12-07T11:16:32;3.60;99.90
20432;DHT22;10375;49.136;10.366;2022-12-07T11:24:20;3.70;99.90
20432;DHT22;10375;49.136;10.366;2022-12-07T11:30:00;3.60;99.90
20432;DHT22;10375;49.136;10.366;2022-12-07T11:41:12;3.90;99.90
20432;DHT22;10375;49.136;10.366;2022-12-07T11:43:55;4.20;99.90
20432;DHT22;10375;49.136;10.366;2022-12-07T11:46:27;4.40;99.90
20432;DHT22;10375;49.136;10.366;2022-12-07T11:49:13;4.70;99.90
20432;DHT22;10375;49.136;10.366;2022-12-07T11:51:43;4.60;99.90
20432;DHT22;10375;49.136;10.366;2022-12-07T11:54:18;4.60;99.90
20432;DHT22;10375;49.136;10.366;2022-12-07T11:56:48;4.50;99.90
20432;DHT22;10375;49.136;10.366;2022-12-07T11:59:23;4.50;99.90
20432;DHT22;10375;49.136;10.366;2022-12-07T12:04:58;4.40;99.90
20432;DHT22;10375;49.136;10.366;2022-12-07T12:07:28;4.30;99.90
20432;DHT22;10375;49.136;10.366;2022-12-07T12:10:23;4.20;99.90
20432;DHT22;10375;49.136;10.366;2022-12-07T12:16:38;3.90;99.90
20432;DHT22;10375;49.136;10.366;2022-12-07T12:22:40;3.80;99.90
20432;DHT22;10375;49.136;10.366;2022-12-07T12:25:23;3.80;99.90
20432;DHT22;10375;49.136;10.366;2022-12-07T12:27:53;3.80;99.90
20432;DHT22;10375;49.136;10.366;2022-12-07T12:30:34;3.70;99.90
20432;DHT22;10375;49.136;10.366;2022-12-07T12:33:13;3.70;99.90
20432;DHT22;10375;49.136;10.366;2022-12-07T12:35:42;3.70;99.90
20432;DHT22;10375;49.136;10.366;2022-12-07T12:54:28;3.60;99.90
20432;DHT22;10375;49.136;10.366;2022-12-07T12:59:36;3.60;99.90
20432;DHT22;10375;49.136;10.366;2022-12-07T13:05:14;3.50;99.90
20432;DHT22;10375;49.136;10.366;2022-12-07T13:15:42;3.60;99.90
20432;DHT22;10375;49.136;10.366;2022-12-07T13:20:58;3.50;99.90
20432;DHT22;10375;49.136;10.366;2022-12-07T13:29:18;3.40;99.90
20432;DHT22;10375;49.136;10.366;2022-12-07T13:31:54;3.30;99.90
20432;DHT22;10375;49.136;10.366;2022-12-07T13:34:35;3.30;99.90
20432;DHT22;10375;49.136;10.366;2022-12-07T13:37:14;3.30;99.90
20432;DHT22;10375;49.136;10.366;2022-12-07T13:39:50;3.30;99.90
20432;DHT22;10375;49.136;10.366;2022-12-07T13:42:29;3.30;99.90
20432;DHT22;10375;49.136;10.366;2022-12-07T13:44:58;3.20;99.90
20432;DHT22;10375;49.136;10.366;2022-12-07T13:47:39;3.20;99.90
20432;DHT22;10375;49.136;10.366;2022-12-07T13:50:36;3.20;99.90
20432;DHT22;10375;49.136;10.366;2022-12-07T13:53:12;3.20;99.90
20432;DHT22;10375;49.136;10.366;2022-12-07T13:55:45;3.20;99.90
20432;DHT22;10375;49.136;10.366;2022-12-07T13:58:21;3.30;99.90
20432;DHT22;10375;49.136;10.366;2022-12-07T14:00:49;3.20;99.90
20432;DHT22;10375;49.136;10.366;2022-12-07T14:05:45;3.20;99.90
20432;DHT22;10375;49.136;10.366;2022-12-07T14:13:43;3.20;99.90
20432;DHT22;10375;49.136;10.366;2022-12-07T14:16:34;3.20;99.90
20432;DHT22;10375;49.136;10.366;2022-12-07T14:19:06;3.10;99.90
20432;DHT22;10375;49.136;10.366;2022-12-07T14:22:27;3.20;99.90
20432;DHT22;10375;49.136;10.366;2022-12-07T14:25:13;3.20;99.90
20432;DHT22;10375;49.136;10.366;2022-12-07T14:27:54;3.10;99.90
20432;DHT22;10375;49.136;10.366;2022-12-07T14:30:28;3.10;99.90
20432;DHT22;10375;49.136;10.366;2022-12-07T14:32:59;3.10;99.90
20432;DHT22;10375;49.136;10.366;2022-12-07T14:35:27;3.20;99.90
20432;DHT22;10375;49.136;10.366;2022-12-07T14:37:55;3.10;99.90
20432;DHT22;10375;49.136;10.366;2022-12-07T14:40:27;3.10;99.90
20432;DHT22;10375;49.136;10.366;2022-12-07T14:43:01;3.10;99.90
20432;DHT22;10375;49.136;10.366;2022-12-07T14:45:29;3.10;99.90
20432;DHT22;10375;49.136;10.366;2022-12-07T14:47:56;3.00;99.90
20432;DHT22;10375;49.136;10.366;2022-12-07T14:50:51;3.10;99.90
20432;DHT22;10375;49.136;10.366;2022-12-07T14:53:42;3.10;99.90
20432;DHT22;10375;49.136;10.366;2022-12-07T14:56:15;3.10;99.90
20432;DHT22;10375;49.136;10.366;2022-12-07T14:58:42;3.10;99.90
20432;DHT22;10375;49.136;10.366;2022-12-07T15:01:09;3.00;99.90
20432;DHT22;10375;49.136;10.366;2022-12-07T15:03:36;3.00;99.90
20432;DHT22;10375;49.136;10.366;2022-12-07T15:06:06;3.00;99.90
20432;DHT22;10375;49.136;10.366;2022-12-07T15:08:33;3.00;99.90
20432;DHT22;10375;49.136;10.366;2022-12-07T15:11:00;3.00;99.90
20432;DHT22;10375;49.136;10.366;2022-12-07T15:13:27;3.00;99.90
20432;DHT22;10375;49.136;10.366;2022-12-07T15:16:16;3.00;99.90
20432;DHT22;10375;49.136;10.366;2022-12-07T15:18:45;3.10;99.90
20432;DHT22;10375;49.136;10.366;2022-12-07T15:21:32;3.00;99.90
20432;DHT22;10375;49.136;10.366;2022-12-07T15:23:59;3.00;99.90
20432;DHT22;10375;49.136;10.366;2022-12-07T15:26:26;3.00;99.90
20432;DHT22;10375;49.136;10.366;2022-12-07T15:28:54;3.00;99.90
20432;DHT22;10375;49.136;10.366;2022-12-07T15:31:21;3.00;99.90
20432;DHT22;10375;49.136;10.366;2022-12-07T15:34:08;3.00;99.90
20432;DHT22;10375;49.136;10.366;2022-12-07T15:36:35;2.90;99.90
20432;DHT22;10375;49.136;10.366;2022-12-07T15:39:02;2.90;99.90
20432;DHT22;10375;49.136;10.366;2022-12-07T15:41:45;2.90;99.90
20432;DHT22;10375;49.136;10.366;2022-12-07T15:44:13;2.90;99.90
20432;DHT22;10375;49.136;10.366;2022-12-07T15:46:58;2.80;99.90
20432;DHT22;10375;49.136;10.366;2022-12-07T15:49:26;2.90;99.90
20432;DHT22;10375;49.136;10.366;2022-12-07T15:51:54;2.90;99.90
20432;DHT22;10375;49.136;10.366;2022-12-07T15:54:26;2.90;99.90
20432;DHT22;10375;49.136;10.366;2022-12-07T15:56:54;2.80;99.90
20432;DHT22;10375;49.136;10.366;2022-12-07T15:59:21;2.80;99.90
20432;DHT22;10375;49.136;10.366;2022-12-07T16:01:48;2.80;99.90
20432;DHT22;10375;49.136;10.366;2022-12-07T16:04:15;2.80;99.90
20432;DHT22;10375;49.136;10.366;2022-12-07T16:06:42;2.70;99.90
20432;DHT22;10375;49.136;10.366;2022-12-07T16:09:10;2.70;99.90
20432;DHT22;10375;49.136;10.366;2022-12-07T16:11:37;2.70;99.90
20432;DHT22;10375;49.136;10.366;2022-12-07T16:14:04;2.70;99.90
20432;DHT22;10375;49.136;10.366;2022-12-07T16:16:31;2.70;99.90
20432;DHT22;10375;49.136;10.366;2022-12-07T16:18:58;2.70;99.90
20432;DHT22;10375;49.136;10.366;2022-12-07T16:21:25;2.70;99.90
20432;DHT22;10375;49.136;10.366;2022-12-07T16:23:52;2.60;99.90
20432;DHT22;10375;49.136;10.366;2022-12-07T16:26:21;2.60;99.90
20432;DHT22;10375;49.136;10.366;2022-12-07T16:28:50;2.60;99.90
20432;DHT22;10375;49.136;10.366;2022-12-07T16:31:19;2.60;99.90
20432;DHT22;10375;49.136;10.366;2022-12-07T16:33:47;2.60;99.90
20432;DHT22;10375;49.136;10.366;2022-12-07T16:36:16;2.60;99.90
20432;DHT22;10375;49.136;10.366;2022-12-07T16:39:04;2.60;99.90
20432;DHT22;10375;49.136;10.366;2022-12-07T16:41:32;2.50;99.90
20432;DHT22;10375;49.136;10.366;2022-12-07T16:44:07;2.60;99.90
20432;DHT22;10375;49.136;10.366;2022-12-07T16:46:36;2.60;99.90
20432;DHT22;10375;49.136;10.366;2022-12-07T16:49:04;2.60;99.90
20432;DHT22;10375;49.136;10.366;2022-12-07T16:51:31;2.50;99.90
20432;DHT22;10375;49.136;10.366;2022-12-07T16:54:01;2.60;99.90
20432;DHT22;10375;49.136;10.366;2022-12-07T16:56:28;2.50;99.90
20432;DHT22;10375;49.136;10.366;2022-12-07T16:58:58;2.50;99.90
20432;DHT22;10375;49.136;10.366;2022-12-07T17:01:25;2.50;99.90
20432;DHT22;10375;49.136;10.366;2022-12-07T17:03:56;2.40;99.90
20432;DHT22;10375;49.136;10.366;2022-12-07T17:06:26;2.40;99.90
20432;DHT22;10375;49.136;10.366;2022-12-07T17:08:56;2.40;99.90
20432;DHT22;10375;49.136;10.366;2022-12-07T17:11:28;2.40;99.90
20432;DHT22;10375;49.136;10.366;2022-12-07T17:13:57;2.40;99.90
20432;DHT22;10375;49.136;10.366;2022-12-07T17:16:43;2.50;99.90
20432;DHT22;10375;49.136;10.366;2022-12-07T17:19:12;2.50;99.90
20432;DHT22;10375;49.136;10.366;2022-12-07T17:21:40;2.50;99.90
20432;DHT22;10375;49.136;10.366;2022-12-07T17:24:09;2.50;99.90
20432;DHT22;10375;49.136;10.366;2022-12-07T17:26:37;2.50;99.90
20432;DHT22;10375;49.136;10.366;2022-12-07T17:29:06;2.50;99.90
20432;DHT22;10375;49.136;10.366;2022-12-07T17:31:34;2.50;99.90
20432;DHT22;10375;49.136;10.366;2022-12-07T17:34:02;2.50;99.90
20432;DHT22;10375;49.136;10.366;2022-12-07T17:36:31;2.50;99.90
20432;DHT22;10375;49.136;10.366;2022-12-07T17:38:58;2.50;99.90
20432;DHT22;10375;49.136;10.366;2022-12-07T17:41:27;2.40;99.90
20432;DHT22;10375;49.136;10.366;2022-12-07T17:44:17;2.40;99.90
20432;DHT22;10375;49.136;10.366;2022-12-07T17:46:46;2.40;99.90
20432;DHT22;10375;49.136;10.366;2022-12-07T17:49:14;2.40;99.90
20432;DHT22;10375;49.136;10.366;2022-12-07T17:51:41;2.40;99.90
20432;DHT22;10375;49.136;10.366;2022-12-07T17:54:28;2.40;99.90
20432;DHT22;10375;49.136;10.366;2022-12-07T17:56:55;2.40;99.90
20432;DHT22;10375;49.136;10.366;2022-12-07T17:59:23;2.40;99.90
20432;DHT22;10375;49.136;10.366;2022-12-07T18:01:50;2.40;99.90
20432;DHT22;10375;49.136;10.366;2022-12-07T18:04:18;2.40;99.90
20432;DHT22;10375;49.136;10.366;2022-12-07T18:06:45;2.40;99.90
20432;DHT22;10375;49.136;10.366;2022-12-07T18:09:18;2.40;99.90
20432;DHT22;10375;49.136;10.366;2022-12-07T18:11:45;2.40;99.90
20432;DHT22;10375;49.136;10.366;2022-12-07T18:14:12;2.40;99.90
20432;DHT22;10375;49.136;10.366;2022-12-07T18:16:40;2.40;99.90
20432;DHT22;10375;49.136;10.366;2022-12-07T18:19:07;2.40;99.90
20432;DHT22;10375;49.136;10.366;2022-12-07T18:21:35;2.40;99.90
20432;DHT22;10375;49.136;10.366;2022-12-07T18:24:03;2.40;99.90
20432;DHT22;10375;49.136;10.366;2022-12-07T18:26:32;2.40;99.90
20432;DHT22;10375;49.136;10.366;2022-12-07T18:29:02;2.40;99.90
20432;DHT22;10375;49.136;10.366;2022-12-07T18:31:29;2.40;99.90
20432;DHT22;10375;49.136;10.366;2022-12-07T18:34:00;2.40;99.90
20432;DHT22;10375;49.136;10.366;2022-12-07T18:36:28;2.40;99.90
20432;DHT22;10375;49.136;10.366;2022-12-07T18:38:55;2.40;99.90
20432;DHT22;10375;49.136;10.366;2022-12-07T18:41:22;2.40;99.90
20432;DHT22;10375;49.136;10.366;2022-12-07T18:43:49;2.40;99.90
20432;DHT22;10375;49.136;10.366;2022-12-07T18:46:19;2.40;99.90
20432;DHT22;10375;49.136;10.366;2022-12-07T18:48:48;2.40;99.90
20432;DHT22;10375;49.136;10.366;2022-12-07T18:51:18;2.40;99.90